createdAt,value
2023-07-06T00:01:06.709Z,100276.06
2023-07-06T00:03:33.910Z,100309.31
2023-07-06T00:06:01.890Z,100367.75
2023-07-06T00:08:30.255Z,100364.25
2023-07-06T00:10:57.323Z,100352.00
2023-07-06T00:13:24.812Z,100352.13
2023-07-06T00:15:52.137Z,100363.50
2023-07-06T00:18:22.419Z,100368.88
2023-07-06T00:20:51.004Z,100360.25
2023-07-06T00:23:18.826Z,100371.56
2023-07-06T00:25:47.011Z,100360.25
2023-07-06T00:28:15.437Z,100370.69
2023-07-06T00:30:45.441Z,100369.91
2023-07-06T00:33:14.680Z,100374.31
2023-07-06T00:35:42.290Z,100377.81
2023-07-06T00:38:13.306Z,100381.38
2023-07-06T00:40:42.049Z,100375.25
2023-07-06T00:43:16.722Z,100379.63
2023-07-06T00:45:45.970Z,100373.72
2023-07-06T00:48:27.964Z,100386.75
2023-07-06T00:51:02.390Z,100381.63
2023-07-06T00:53:33.925Z,100393.06
2023-07-06T00:56:02.158Z,100380.84
2023-07-06T00:58:37.386Z,100393.06
2023-07-06T01:01:07.768Z,100391.97
2023-07-06T01:03:45.579Z,100387.81
2023-07-06T01:06:20.523Z,100378.22
2023-07-06T01:08:50.093Z,100383.47
2023-07-06T01:11:18.231Z,100376.50
2023-07-06T01:13:54.235Z,100380.84
2023-07-06T01:17:04.364Z,100381.63
2023-07-06T01:20:15.837Z,100382.50
2023-07-06T01:23:07.711Z,100380.84
2023-07-06T01:26:07.131Z,100380.84
2023-07-06T01:28:49.315Z,100369.47
2023-07-06T01:31:40.688Z,100328.66
2023-07-06T01:34:46.797Z,100379.81
2023-07-06T01:37:36.036Z,100376.34
2023-07-06T01:40:10.968Z,100234.69
2023-07-06T01:42:41.905Z,100372.19
2023-07-06T01:45:17.588Z,100351.22
2023-07-06T01:47:51.098Z,100387.81
2023-07-06T01:50:23.522Z,100387.78
2023-07-06T01:52:58.861Z,100380.72
2023-07-06T01:55:37.306Z,100384.19
2023-07-06T01:58:25.120Z,100392.03
2023-07-06T02:01:18.204Z,100391.03
2023-07-06T02:03:46.046Z,100393.88
2023-07-06T02:06:14.333Z,100378.97
2023-07-06T02:08:44.124Z,100390.25
2023-07-06T02:11:12.556Z,100390.31
2023-07-06T02:13:39.776Z,100395.44
2023-07-06T02:16:08.894Z,100378.88
2023-07-06T02:18:36.601Z,100395.44
2023-07-06T02:21:04.863Z,100364.88
2023-07-06T02:23:33.952Z,100377.97
2023-07-06T02:26:01.119Z,100388.47
2023-07-06T02:28:28.932Z,100391.97
2023-07-06T02:30:56.317Z,100389.38
2023-07-06T02:33:23.553Z,100393.78
2023-07-06T02:35:50.678Z,100362.34
2023-07-06T02:38:19.483Z,100391.16
2023-07-06T02:40:47.595Z,100390.25
2023-07-06T02:43:14.738Z,100392.72
2023-07-06T02:45:41.846Z,100400.69
2023-07-06T02:48:08.946Z,100393.59
2023-07-06T02:50:38.028Z,100406.75
2023-07-06T02:53:05.527Z,100406.66
2023-07-06T02:55:33.713Z,100407.47
2023-07-06T02:58:00.796Z,100397.81
2023-07-06T03:00:27.863Z,100402.06
2023-07-06T03:02:54.982Z,100406.31
2023-07-06T03:05:24.608Z,100400.09
2023-07-06T03:07:56.090Z,100406.97
2023-07-06T03:10:25.969Z,100394.75
2023-07-06T03:12:53.454Z,100398.03
2023-07-06T03:15:21.027Z,100405.88
2023-07-06T03:17:50.429Z,100406.66
2023-07-06T03:20:24.129Z,100409.16
2023-07-06T03:22:53.903Z,100412.47
2023-07-06T03:25:28.276Z,100367.09
2023-07-06T03:27:56.140Z,100413.16
2023-07-06T03:30:30.716Z,100420.94
2023-07-06T03:33:00.567Z,100413.00
2023-07-06T03:35:29.652Z,100416.34
2023-07-06T03:38:00.378Z,100417.13
2023-07-06T03:40:30.638Z,100409.97
2023-07-06T03:42:59.360Z,100402.94
2023-07-06T03:45:26.641Z,100414.97
2023-07-06T03:47:54.060Z,100406.97
2023-07-06T03:50:24.362Z,100397.22
2023-07-06T03:52:51.813Z,100397.03
2023-07-06T03:55:22.385Z,100410.84
2023-07-06T03:58:03.538Z,100399.38
2023-07-06T04:00:32.331Z,100408.84
2023-07-06T04:03:08.343Z,100406.03
2023-07-06T04:05:39.546Z,100404.13
2023-07-06T04:08:12.863Z,100411.09
2023-07-06T04:10:41.508Z,100390.88
2023-07-06T04:13:11.228Z,100411.78
2023-07-06T04:15:41.471Z,100399.47
2023-07-06T04:18:08.936Z,100406.34
2023-07-06T04:20:36.191Z,100384.28
2023-07-06T04:23:04.823Z,100398.06
2023-07-06T04:25:35.025Z,100382.13
2023-07-06T04:28:08.241Z,100409.75
2023-07-06T04:30:37.445Z,100411.38
2023-07-06T04:33:05.903Z,100410.06
2023-07-06T04:35:33.286Z,100402.75
2023-07-06T04:38:01.223Z,100412.31
2023-07-06T04:40:29.266Z,100397.34
2023-07-06T04:42:56.611Z,100416.47
2023-07-06T04:45:26.178Z,100410.13
2023-07-06T04:47:55.323Z,100406.63
2023-07-06T04:50:24.048Z,100375.19
2023-07-06T04:52:57.045Z,100410.63
2023-07-06T04:55:26.975Z,100403.66
2023-07-06T04:57:57.291Z,100411.44
2023-07-06T05:00:31.931Z,100429.63
2023-07-06T05:03:01.848Z,100414.53
2023-07-06T05:05:33.435Z,100370.09
2023-07-06T05:08:00.668Z,100406.31
2023-07-06T05:10:28.862Z,100418.53
2023-07-06T05:12:59.557Z,100404.31
2023-07-06T05:15:26.848Z,100404.97
2023-07-06T05:17:55.615Z,100405.72
2023-07-06T05:20:23.762Z,100366.38
2023-07-06T05:22:51.499Z,100402.50
2023-07-06T05:25:20.473Z,100399.69
2023-07-06T05:27:48.783Z,100406.47
2023-07-06T05:30:18.465Z,100409.84
2023-07-06T05:32:50.228Z,100403.56
2023-07-06T05:35:18.941Z,100393.84
2023-07-06T05:37:46.468Z,100389.25
2023-07-06T05:40:13.790Z,100398.63
2023-07-06T05:42:40.951Z,100403.59
2023-07-06T05:45:09.556Z,100400.69
2023-07-06T05:47:37.078Z,100403.13
2023-07-06T05:50:04.528Z,100400.34
2023-07-06T05:52:31.729Z,100401.84
2023-07-06T05:54:58.827Z,100397.16
2023-07-06T05:57:25.954Z,100387.09
2023-07-06T05:59:55.146Z,100385.00
2023-07-06T06:02:23.595Z,100379.31
2023-07-06T06:04:52.973Z,100376.38
2023-07-06T06:07:21.544Z,100365.75
2023-07-06T06:09:49.674Z,100367.91
2023-07-06T06:12:22.253Z,100368.25
2023-07-06T06:14:50.697Z,100364.66
2023-07-06T06:17:19.925Z,100381.72
2023-07-06T06:19:48.287Z,100370.84
2023-07-06T06:22:17.668Z,100371.44
2023-07-06T06:24:46.114Z,100361.81
2023-07-06T06:27:18.800Z,100372.72
2023-07-06T06:29:46.857Z,100374.13
2023-07-06T06:32:15.392Z,100363.38
2023-07-06T06:34:43.425Z,100329.59
2023-07-06T06:37:11.297Z,100354.44
2023-07-06T06:39:40.863Z,100373.34
2023-07-06T06:42:09.326Z,100332.59
2023-07-06T06:44:43.140Z,100370.28
2023-07-06T06:47:10.666Z,100382.41
2023-07-06T06:49:38.102Z,100368.31
2023-07-06T06:52:06.267Z,100375.03
2023-07-06T06:54:35.300Z,100374.59
2023-07-06T06:57:04.502Z,100369.72
2023-07-06T06:59:34.428Z,100387.69
2023-07-06T07:02:04.142Z,100384.66
2023-07-06T07:04:32.591Z,100403.88
2023-07-06T07:07:04.407Z,100396.22
2023-07-06T07:09:31.915Z,100365.75
2023-07-06T07:11:59.460Z,100388.00
2023-07-06T07:14:27.141Z,100373.94
2023-07-06T07:16:54.265Z,100385.56
2023-07-06T07:19:22.539Z,100388.38
2023-07-06T07:21:51.667Z,100398.66
2023-07-06T07:24:18.917Z,100398.22
2023-07-06T07:26:50.348Z,100407.09
2023-07-06T07:29:17.898Z,100403.31
2023-07-06T07:31:45.219Z,100395.88
2023-07-06T07:34:15.850Z,100403.44
2023-07-06T07:36:43.300Z,100400.50
2023-07-06T07:39:11.397Z,100394.06
2023-07-06T07:41:38.590Z,100405.94
2023-07-06T07:44:05.670Z,100415.25
2023-07-06T07:46:33.490Z,100411.50
2023-07-06T07:49:02.605Z,100403.34
2023-07-06T07:51:31.394Z,100414.41
2023-07-06T07:53:59.424Z,100406.22
2023-07-06T07:56:27.814Z,100390.72
2023-07-06T07:58:55.266Z,100413.16
2023-07-06T08:01:25.814Z,100417.28
2023-07-06T08:03:57.241Z,100408.69
2023-07-06T08:06:24.682Z,100426.84
2023-07-06T08:08:52.652Z,100415.94
2023-07-06T08:11:22.899Z,100419.06
2023-07-06T08:13:52.351Z,100415.31
2023-07-06T08:16:21.720Z,100413.97
2023-07-06T08:18:50.866Z,100405.19
2023-07-06T08:21:37.715Z,100410.28
2023-07-06T08:24:10.462Z,100424.28
2023-07-06T08:26:37.507Z,100427.81
2023-07-06T08:29:05.587Z,100420.59
2023-07-06T08:31:32.685Z,100424.44
2023-07-06T08:34:01.944Z,100412.69
2023-07-06T08:36:29.259Z,100416.84
2023-07-06T08:38:57.736Z,100414.25
2023-07-06T08:41:34.776Z,100417.41
2023-07-06T08:44:09.107Z,100414.59
2023-07-06T08:46:43.947Z,100358.50
2023-07-06T08:49:19.196Z,100411.53
2023-07-06T08:51:48.897Z,100402.31
2023-07-06T08:54:22.977Z,100370.56
2023-07-06T08:56:50.980Z,100404.81
2023-07-06T08:59:37.207Z,100386.94
2023-07-06T09:02:25.096Z,100396.66
2023-07-06T09:04:54.465Z,100371.75
2023-07-06T09:07:43.750Z,100378.03
2023-07-06T09:10:23.270Z,100383.78
2023-07-06T09:13:13.302Z,100395.31
2023-07-06T09:15:40.416Z,100364.72
2023-07-06T09:18:14.172Z,100387.53
2023-07-06T09:20:41.367Z,100389.25
2023-07-06T09:23:17.088Z,100348.91
2023-07-06T09:25:48.218Z,100390.63
2023-07-06T09:28:21.801Z,100384.06
2023-07-06T09:30:52.365Z,100373.94
2023-07-06T09:33:25.916Z,100374.41
2023-07-06T09:35:59.268Z,100379.16
2023-07-06T09:38:28.725Z,100375.75
2023-07-06T09:40:57.080Z,100384.81
2023-07-06T09:43:26.392Z,100380.25
2023-07-06T09:45:58.207Z,100379.16
2023-07-06T09:48:30.994Z,100382.25
2023-07-06T09:51:14.463Z,100371.66
2023-07-06T09:53:45.851Z,100368.16
2023-07-06T09:56:15.967Z,100379.97
2023-07-06T09:58:43.960Z,100373.59
2023-07-06T10:01:18.822Z,100371.44
2023-07-06T10:04:11.782Z,100377.16
2023-07-06T10:07:10.210Z,100373.00
2023-07-06T10:10:00.057Z,100363.44
2023-07-06T10:12:40.596Z,100363.53
2023-07-06T10:15:27.336Z,100354.53
2023-07-06T10:18:08.571Z,100358.41
2023-07-06T10:20:45.081Z,100343.41
2023-07-06T10:23:34.069Z,100356.34
2023-07-06T10:26:10.224Z,100348.56
2023-07-06T10:28:48.404Z,100353.34
2023-07-06T10:31:19.953Z,100361.63
2023-07-06T10:33:58.518Z,100362.66
2023-07-06T10:36:33.378Z,100358.38
2023-07-06T10:39:11.853Z,100360.78
2023-07-06T10:41:44.586Z,100361.50
2023-07-06T10:44:42.124Z,100356.06
2023-07-06T10:47:41.665Z,100360.88
2023-07-06T10:50:09.038Z,100356.78
2023-07-06T10:52:39.644Z,100359.78
2023-07-06T10:55:27.087Z,100351.59
2023-07-06T10:57:58.893Z,100352.31
2023-07-06T11:00:36.965Z,100345.22
2023-07-06T11:03:05.518Z,100335.03
2023-07-06T11:05:38.123Z,100327.34
2023-07-06T11:08:12.243Z,100304.81
2023-07-06T11:10:50.400Z,100342.25
2023-07-06T11:13:22.013Z,100337.47
2023-07-06T11:15:50.110Z,100339.88
2023-07-06T11:18:23.916Z,100332.25
2023-07-06T11:21:32.564Z,100332.22
2023-07-06T11:24:08.083Z,100333.06
2023-07-06T11:26:51.733Z,100327.09
2023-07-06T11:29:29.964Z,100336.06
2023-07-06T11:32:49.099Z,100326.03
2023-07-06T11:35:28.542Z,100331.78
2023-07-06T11:38:13.873Z,100319.16
2023-07-06T11:40:49.556Z,100318.00
2023-07-06T11:43:25.575Z,100316.09
2023-07-06T11:46:18.083Z,100313.31
2023-07-06T11:49:06.933Z,100303.75
2023-07-06T11:51:38.666Z,100308.63
2023-07-06T11:54:20.803Z,100294.63
2023-07-06T11:57:11.841Z,100307.56
2023-07-06T11:59:41.581Z,100302.19
2023-07-06T12:02:18.986Z,100306.13
2023-07-06T12:04:47.803Z,100259.94
2023-07-06T12:07:27.416Z,100291.56
2023-07-06T12:09:54.557Z,100296.84
2023-07-06T12:12:24.646Z,100303.16
2023-07-06T12:14:58.257Z,100299.03
2023-07-06T12:17:25.682Z,100298.53
2023-07-06T12:19:59.758Z,100295.00
2023-07-06T12:22:27.338Z,100282.09
2023-07-06T12:24:57.241Z,100278.94
2023-07-06T12:27:27.265Z,100284.84
2023-07-06T12:30:07.786Z,100286.13
2023-07-06T12:32:36.785Z,100278.41
2023-07-06T12:35:06.111Z,100281.50
2023-07-06T12:37:33.283Z,100274.09
2023-07-06T12:40:00.744Z,100278.66
2023-07-06T12:42:27.923Z,100276.75
2023-07-06T12:44:56.142Z,100266.25
2023-07-06T12:47:39.064Z,100271.06
2023-07-06T12:50:17.506Z,100267.19
2023-07-06T12:52:46.610Z,100271.84
2023-07-06T12:55:17.835Z,100259.59
2023-07-06T12:57:47.380Z,100238.47
2023-07-06T13:00:23.870Z,100253.03
2023-07-06T13:02:56.392Z,100261.47
2023-07-06T13:05:25.346Z,100244.31
2023-07-06T13:07:53.448Z,100249.66
2023-07-06T13:10:33.341Z,100250.25
2023-07-06T13:13:01.822Z,100253.88
2023-07-06T13:15:39.427Z,100233.78
2023-07-06T13:18:15.989Z,100236.53
2023-07-06T13:20:43.575Z,100229.44
2023-07-06T13:23:12.144Z,100225.75
2023-07-06T13:25:45.679Z,100238.00
2023-07-06T13:28:20.843Z,100236.28
2023-07-06T13:30:53.367Z,100228.09
2023-07-06T13:33:20.885Z,100230.66
2023-07-06T13:35:48.654Z,100217.28
2023-07-06T13:38:16.275Z,100218.13
2023-07-06T13:40:44.628Z,100205.88
2023-07-06T13:43:16.936Z,100205.72
2023-07-06T13:45:44.755Z,100204.75
2023-07-06T13:48:13.815Z,100196.88
2023-07-06T13:50:47.017Z,100206.47
2023-07-06T13:53:14.579Z,100205.22
2023-07-06T13:55:49.444Z,100201.84
2023-07-06T13:58:18.190Z,100194.34
2023-07-06T14:00:49.063Z,100194.91
2023-07-06T14:03:19.698Z,100188.28
2023-07-06T14:05:47.754Z,100179.22
2023-07-06T14:08:14.944Z,100187.97
2023-07-06T14:10:42.625Z,100184.59
2023-07-06T14:13:10.514Z,100179.50
2023-07-06T14:15:38.297Z,100178.28
2023-07-06T14:18:09.052Z,100176.81
2023-07-06T14:20:42.047Z,100180.09
2023-07-06T14:23:15.641Z,100188.22
2023-07-06T14:25:44.035Z,100169.84
2023-07-06T14:28:12.114Z,100183.63
2023-07-06T14:30:39.300Z,100189.69
2023-07-06T14:33:08.672Z,100181.56
2023-07-06T14:35:37.065Z,100181.56
2023-07-06T14:38:07.330Z,100181.47
2023-07-06T14:40:38.971Z,100173.47
2023-07-06T14:43:07.060Z,100181.28
2023-07-06T14:45:35.306Z,100170.97
2023-07-06T14:48:03.105Z,100170.19
2023-07-06T14:50:30.224Z,100180.38
2023-07-06T14:52:57.491Z,100179.00
2023-07-06T14:55:25.296Z,100172.09
2023-07-06T14:57:52.813Z,100181.56
2023-07-06T15:00:20.232Z,100186.06
2023-07-06T15:02:50.791Z,100178.03
2023-07-06T15:05:18.008Z,100171.13
2023-07-06T15:07:45.535Z,100168.47
2023-07-06T15:10:15.723Z,100171.31
2023-07-06T15:12:43.896Z,100169.66
2023-07-06T15:15:12.408Z,100167.16
2023-07-06T15:17:39.861Z,100155.19
2023-07-06T15:20:12.099Z,100162.06
2023-07-06T15:22:39.946Z,100171.13
2023-07-06T15:25:07.730Z,100164.13
2023-07-06T15:27:34.871Z,100164.31
2023-07-06T15:30:02.016Z,100154.88
2023-07-06T15:32:34.381Z,100150.56
2023-07-06T15:35:02.386Z,100149.72
2023-07-06T15:37:33.875Z,100151.59
2023-07-06T15:40:02.739Z,100146.41
2023-07-06T15:42:32.458Z,100136.31
2023-07-06T15:44:59.802Z,100142.78
2023-07-06T15:47:27.733Z,100141.50
2023-07-06T15:49:55.551Z,100130.28
2023-07-06T15:52:22.938Z,100111.28
2023-07-06T15:54:50.012Z,100149.50
2023-07-06T15:57:17.096Z,100144.16
2023-07-06T15:59:46.669Z,100152.25
2023-07-06T16:02:19.170Z,100147.78
2023-07-06T16:04:47.542Z,100145.97
2023-07-06T16:07:14.617Z,100137.34
2023-07-06T16:09:41.744Z,100140.78
2023-07-06T16:12:09.758Z,100148.91
2023-07-06T16:14:37.130Z,100134.25
2023-07-06T16:17:04.658Z,100147.31
2023-07-06T16:19:31.824Z,100144.84
2023-07-06T16:21:59.074Z,100146.47
2023-07-06T16:24:26.161Z,100148.38
2023-07-06T16:26:53.224Z,100144.13
2023-07-06T16:29:20.330Z,100148.69
2023-07-06T16:31:47.496Z,100143.59
2023-07-06T16:34:15.239Z,100150.81
2023-07-06T16:36:42.329Z,100150.91
2023-07-06T16:39:09.740Z,100148.47
2023-07-06T16:41:36.808Z,100152.72
2023-07-06T16:44:04.096Z,100141.31
2023-07-06T16:46:31.280Z,100126.56
2023-07-06T16:48:59.104Z,100129.25
2023-07-06T16:51:26.478Z,100139.94
2023-07-06T16:53:53.636Z,100125.91
2023-07-06T16:56:21.130Z,100124.28
2023-07-06T16:58:48.407Z,100131.34
2023-07-06T17:01:15.637Z,100122.81
2023-07-06T17:03:42.851Z,100118.91
2023-07-06T17:06:10.900Z,100133.75
2023-07-06T17:08:38.160Z,100132.88
2023-07-06T17:11:08.130Z,100118.44
2023-07-06T17:13:36.900Z,100150.94
2023-07-06T17:16:05.009Z,100127.00
2023-07-06T17:18:32.484Z,100135.72
2023-07-06T17:21:07.392Z,100150.59
2023-07-06T17:23:35.353Z,100150.91
2023-07-06T17:26:03.504Z,100152.81
2023-07-06T17:28:32.044Z,100149.69
2023-07-06T17:31:10.640Z,100149.59
2023-07-06T17:33:38.369Z,100157.91
2023-07-06T17:36:07.057Z,100162.56
2023-07-06T17:38:35.166Z,100153.91
2023-07-06T17:41:09.687Z,100149.78
2023-07-06T17:43:38.339Z,100142.25
2023-07-06T17:46:06.330Z,100163.34
2023-07-06T17:48:34.783Z,100161.06
2023-07-06T17:51:04.095Z,100166.47
2023-07-06T17:53:31.855Z,100165.69
2023-07-06T17:55:59.742Z,100158.94
2023-07-06T17:58:27.334Z,100160.78
2023-07-06T18:00:55.544Z,100157.63
2023-07-06T18:03:23.711Z,100171.53
2023-07-06T18:05:51.390Z,100170.88
2023-07-06T18:08:19.033Z,100167.53
2023-07-06T18:10:47.284Z,100164.91
2023-07-06T18:13:15.370Z,100131.25
2023-07-06T18:15:42.602Z,100163.41
2023-07-06T18:18:09.778Z,100155.63
2023-07-06T18:20:37.208Z,100134.84
2023-07-06T18:23:04.563Z,100156.94
2023-07-06T18:25:31.703Z,100153.50
2023-07-06T18:27:58.847Z,100148.53
2023-07-06T18:30:25.924Z,100153.88
2023-07-06T18:32:53.106Z,100158.41
2023-07-06T18:35:20.315Z,100151.56
2023-07-06T18:37:47.464Z,100149.97
2023-07-06T18:40:15.193Z,100141.41
2023-07-06T18:42:42.446Z,100149.41
2023-07-06T18:45:10.480Z,100144.31
2023-07-06T18:47:38.409Z,100147.25
2023-07-06T18:50:07.263Z,100144.94
2023-07-06T18:52:37.026Z,100150.25
2023-07-06T18:55:04.813Z,100137.31
2023-07-06T18:57:32.020Z,100149.78
2023-07-06T18:59:59.418Z,100149.94
2023-07-06T19:02:26.675Z,100144.81
2023-07-06T19:04:54.027Z,100141.41
2023-07-06T19:07:21.255Z,100131.81
2023-07-06T19:09:49.327Z,100129.59
2023-07-06T19:12:17.120Z,100151.59
2023-07-06T19:14:44.492Z,100161.72
2023-07-06T19:17:12.218Z,100153.00
2023-07-06T19:19:39.434Z,100146.94
2023-07-06T19:22:07.780Z,100155.78
2023-07-06T19:24:35.182Z,100141.69
2023-07-06T19:27:02.520Z,100132.94
2023-07-06T19:29:29.709Z,100134.72
2023-07-06T19:32:07.457Z,100128.66
2023-07-06T19:34:43.507Z,100143.75
2023-07-06T19:37:10.592Z,100136.78
2023-07-06T19:39:38.240Z,100122.94
2023-07-06T19:42:05.585Z,100121.19
2023-07-06T19:44:33.299Z,100132.38
2023-07-06T19:47:00.551Z,100132.44
2023-07-06T19:49:27.636Z,100110.81
2023-07-06T19:51:56.506Z,100130.78
2023-07-06T19:54:23.714Z,100129.94
2023-07-06T19:56:50.817Z,100126.59
2023-07-06T19:59:17.959Z,100107.44
2023-07-06T20:01:45.163Z,100122.28
2023-07-06T20:04:12.838Z,100055.75
2023-07-06T20:06:41.637Z,100133.81
2023-07-06T20:09:08.720Z,100127.78
2023-07-06T20:11:36.322Z,100127.88
2023-07-06T20:14:03.832Z,100141.09
2023-07-06T20:16:31.129Z,100122.88
2023-07-06T20:18:58.274Z,100144.78
2023-07-06T20:21:25.521Z,100131.94
2023-07-06T20:23:52.650Z,100150.06
2023-07-06T20:26:19.762Z,100147.53
2023-07-06T20:28:46.847Z,100142.13
2023-07-06T20:31:13.937Z,100130.84
2023-07-06T20:33:41.114Z,100135.25
2023-07-06T20:36:08.749Z,100123.97
2023-07-06T20:38:36.227Z,100116.09
2023-07-06T20:41:03.580Z,100117.16
2023-07-06T20:43:32.152Z,100138.91
2023-07-06T20:46:02.192Z,100135.38
2023-07-06T20:48:29.381Z,100119.69
2023-07-06T20:50:59.179Z,100137.97
2023-07-06T20:53:26.643Z,100135.34
2023-07-06T20:55:54.420Z,100133.72
2023-07-06T20:58:21.527Z,100127.41
2023-07-06T21:00:48.614Z,100129.22
2023-07-06T21:03:15.668Z,100128.34
2023-07-06T21:05:42.971Z,100116.25
2023-07-06T21:08:10.010Z,100109.31
2023-07-06T21:10:37.190Z,100129.53
2023-07-06T21:13:04.653Z,100134.84
2023-07-06T21:15:31.803Z,100135.78
2023-07-06T21:17:59.095Z,100128.75
2023-07-06T21:20:26.208Z,100094.78
2023-07-06T21:22:53.377Z,100109.78
2023-07-06T21:25:20.654Z,100113.28
2023-07-06T21:27:47.733Z,100114.84
2023-07-06T21:30:14.818Z,100117.53
2023-07-06T21:32:44.547Z,100121.06
2023-07-06T21:35:11.904Z,100118.63
2023-07-06T21:37:38.995Z,100116.88
2023-07-06T21:40:06.809Z,100112.50
2023-07-06T21:42:33.890Z,100099.56
2023-07-06T21:45:01.563Z,100109.94
2023-07-06T21:47:32.267Z,100115.41
2023-07-06T21:49:59.318Z,100108.34
2023-07-06T21:52:26.402Z,100098.09
2023-07-06T21:54:53.529Z,100103.94
2023-07-06T21:57:20.549Z,100109.34
2023-07-06T21:59:47.826Z,100106.75
2023-07-06T22:02:14.925Z,100095.44
2023-07-06T22:04:42.023Z,100093.72
2023-07-06T22:07:09.080Z,100096.38
2023-07-06T22:09:36.129Z,100091.06
2023-07-06T22:12:03.287Z,100076.38
2023-07-06T22:14:30.423Z,100086.75
2023-07-06T22:16:57.531Z,100065.84
2023-07-06T22:19:24.616Z,100059.81
2023-07-06T22:21:51.667Z,100063.25
2023-07-06T22:24:19.049Z,100066.72
2023-07-06T22:26:46.174Z,100068.56
2023-07-06T22:29:13.306Z,100052.00
2023-07-06T22:31:40.522Z,100045.25
2023-07-06T22:34:09.297Z,100046.06
2023-07-06T22:36:36.355Z,100069.88
2023-07-06T22:39:03.621Z,100048.03
2023-07-06T22:41:31.137Z,100054.25
2023-07-06T22:44:00.913Z,100056.06
2023-07-06T22:46:28.428Z,100058.00
2023-07-06T22:48:58.425Z,100065.19
2023-07-06T22:51:25.542Z,100056.53
2023-07-06T22:53:52.627Z,100059.25
2023-07-06T22:56:19.704Z,100062.16
2023-07-06T22:58:46.908Z,100071.97
2023-07-06T23:01:22.656Z,100061.44
2023-07-06T23:03:50.110Z,100070.34
2023-07-06T23:06:17.438Z,100072.22
2023-07-06T23:08:44.690Z,100081.09
2023-07-06T23:11:12.723Z,100077.66
2023-07-06T23:13:39.934Z,100073.25
2023-07-06T23:16:07.109Z,100074.19
2023-07-06T23:18:34.567Z,100073.44
2023-07-06T23:21:02.899Z,100048.38
2023-07-06T23:23:30.887Z,100070.84
2023-07-06T23:25:58.071Z,100068.13
2023-07-06T23:28:25.221Z,100049.03
2023-07-06T23:30:53.750Z,100056.81
2023-07-06T23:33:21.739Z,100045.50
2023-07-06T23:35:51.366Z,100039.25
2023-07-06T23:38:21.307Z,100040.09
2023-07-06T23:40:49.051Z,100048.88
2023-07-06T23:43:16.316Z,100058.63
2023-07-06T23:45:43.572Z,100049.31
2023-07-06T23:48:10.667Z,100057.06
2023-07-06T23:50:37.767Z,100047.72
2023-07-06T23:53:04.987Z,100052.84
2023-07-06T23:55:32.216Z,100049.22
2023-07-06T23:58:00.402Z,100042.28
